createdAt,value
2023-06-04T00:00:55.484Z,3.10
2023-06-04T00:03:23.940Z,3.03
2023-06-04T00:05:52.326Z,2.77
2023-06-04T00:08:20.974Z,2.50
2023-06-04T00:10:49.313Z,2.80
2023-06-04T00:13:17.659Z,2.50
2023-06-04T00:15:45.965Z,2.67
2023-06-04T00:18:15.871Z,2.30
2023-06-04T00:20:44.421Z,2.43
2023-06-04T00:23:12.763Z,2.17
2023-06-04T00:25:41.058Z,2.10
2023-06-04T00:28:09.385Z,2.10
2023-06-04T00:30:37.727Z,2.63
2023-06-04T00:33:06.391Z,2.40
2023-06-04T00:35:36.432Z,2.27
2023-06-04T00:38:04.748Z,2.50
2023-06-04T00:40:33.031Z,2.40
2023-06-04T00:43:01.339Z,2.63
2023-06-04T00:45:32.434Z,2.70
2023-06-04T00:48:01.446Z,2.93
2023-06-04T00:50:30.017Z,2.80
2023-06-04T00:52:59.760Z,3.40
2023-06-04T00:55:28.136Z,3.00
2023-06-04T00:57:56.543Z,3.20
2023-06-04T01:00:24.919Z,3.20
2023-06-04T01:02:54.904Z,2.80
2023-06-04T01:05:26.928Z,3.17
2023-06-04T01:07:55.226Z,3.10
2023-06-04T01:10:25.133Z,3.30
2023-06-04T01:12:53.513Z,2.90
2023-06-04T01:15:22.118Z,3.80
2023-06-04T01:17:52.724Z,2.87
2023-06-04T01:20:28.202Z,2.33
2023-06-04T01:23:07.979Z,2.60
2023-06-04T01:25:40.331Z,2.27
2023-06-04T01:28:09.155Z,2.63
2023-06-04T01:30:43.796Z,2.53
2023-06-04T01:33:12.517Z,2.20
2023-06-04T01:35:40.968Z,2.60
2023-06-04T01:38:09.327Z,2.60
2023-06-04T01:40:39.057Z,2.47
2023-06-04T01:43:07.984Z,2.40
2023-06-04T01:45:36.364Z,2.40
2023-06-04T01:48:05.308Z,2.30
2023-06-04T01:50:33.685Z,2.43
2023-06-04T01:53:02.030Z,2.40
2023-06-04T01:55:34.644Z,2.57
2023-06-04T01:58:04.864Z,2.33
2023-06-04T02:00:33.421Z,2.33
2023-06-04T02:03:01.883Z,2.43
2023-06-04T02:05:30.304Z,2.57
2023-06-04T02:07:58.641Z,2.33
2023-06-04T02:10:27.906Z,2.43
2023-06-04T02:12:57.480Z,2.43
2023-06-04T02:15:27.838Z,2.30
2023-06-04T02:18:00.774Z,2.50
2023-06-04T02:20:29.337Z,2.50
2023-06-04T02:22:57.828Z,2.33
2023-06-04T02:25:28.556Z,2.10
2023-06-04T02:27:57.712Z,2.83
2023-06-04T02:30:27.454Z,1.93
2023-06-04T02:32:56.216Z,2.50
2023-06-04T02:35:25.928Z,2.07
2023-06-04T02:37:54.454Z,1.90
2023-06-04T02:40:22.806Z,2.10
2023-06-04T02:42:51.216Z,2.00
2023-06-04T02:45:19.560Z,2.10
2023-06-04T02:47:49.460Z,2.00
2023-06-04T02:50:17.824Z,2.07
2023-06-04T02:52:46.625Z,1.90
2023-06-04T02:55:15.145Z,2.30
2023-06-04T02:57:44.450Z,2.20
2023-06-04T03:00:14.477Z,2.00
2023-06-04T03:02:43.618Z,2.27
2023-06-04T03:05:14.202Z,1.97
2023-06-04T03:07:46.095Z,2.20
2023-06-04T03:10:15.026Z,2.03
2023-06-04T03:12:43.310Z,1.87
2023-06-04T03:15:12.172Z,2.10
2023-06-04T03:17:41.284Z,2.40
2023-06-04T03:20:10.641Z,2.37
2023-06-04T03:22:40.812Z,2.10
2023-06-04T03:25:09.735Z,1.80
2023-06-04T03:27:38.187Z,1.93
2023-06-04T03:30:09.195Z,1.90
2023-06-04T03:32:48.756Z,2.20
2023-06-04T03:35:18.226Z,1.83
2023-06-04T03:37:47.914Z,1.77
2023-06-04T03:40:17.017Z,2.00
2023-06-04T03:42:47.198Z,2.40
2023-06-04T03:45:16.820Z,2.00
2023-06-04T03:47:48.190Z,1.93
2023-06-04T03:50:16.972Z,2.10
2023-06-04T03:52:45.386Z,2.00
2023-06-04T03:55:15.232Z,1.83
2023-06-04T03:57:44.372Z,2.00
2023-06-04T04:00:14.894Z,1.80
2023-06-04T04:02:43.470Z,2.10
2023-06-04T04:05:20.071Z,2.20
2023-06-04T04:07:50.472Z,2.03
2023-06-04T04:10:24.032Z,1.97
2023-06-04T04:12:54.881Z,2.10
2023-06-04T04:15:24.319Z,2.00
2023-06-04T04:17:53.891Z,1.70
2023-06-04T04:20:22.594Z,2.00
2023-06-04T04:22:58.559Z,2.20
2023-06-04T04:25:30.033Z,2.07
2023-06-04T04:28:01.802Z,2.00
2023-06-04T04:30:31.596Z,1.97
2023-06-04T04:33:00.249Z,2.20
2023-06-04T04:35:35.705Z,2.50
2023-06-04T04:38:06.142Z,2.40
2023-06-04T04:40:42.174Z,2.20
2023-06-04T04:43:13.197Z,2.33
2023-06-04T04:45:41.565Z,2.20
2023-06-04T04:48:12.275Z,2.30
2023-06-04T04:50:40.600Z,2.10
2023-06-04T04:53:09.323Z,2.07
2023-06-04T04:55:39.587Z,2.00
2023-06-04T04:58:09.777Z,2.30
2023-06-04T05:00:38.673Z,2.00
2023-06-04T05:03:07.169Z,2.43
2023-06-04T05:05:35.902Z,2.30
2023-06-04T05:08:06.748Z,2.07
2023-06-04T05:10:40.694Z,1.73
2023-06-04T05:13:12.363Z,1.93
2023-06-04T05:15:55.484Z,2.10
2023-06-04T05:18:29.918Z,2.03
2023-06-04T05:21:03.703Z,1.93
2023-06-04T05:23:35.672Z,2.13
2023-06-04T05:26:05.519Z,2.03
2023-06-04T05:28:35.719Z,1.90
2023-06-04T05:31:05.832Z,2.00
2023-06-04T05:33:36.389Z,1.60
2023-06-04T05:36:09.906Z,2.17
2023-06-04T05:38:44.849Z,1.80
2023-06-04T05:41:15.675Z,2.10
2023-06-04T05:43:46.053Z,1.97
2023-06-04T05:46:17.738Z,1.70
2023-06-04T05:48:47.258Z,1.80
2023-06-04T05:51:16.694Z,1.80
2023-06-04T05:53:45.967Z,1.80
2023-06-04T05:56:14.393Z,2.00
2023-06-04T05:58:45.196Z,1.90
2023-06-04T06:01:14.592Z,1.70
2023-06-04T06:03:43.366Z,1.90
2023-06-04T06:06:11.885Z,1.80
2023-06-04T06:08:40.921Z,1.97
2023-06-04T06:11:11.323Z,1.73
2023-06-04T06:13:40.218Z,1.53
2023-06-04T06:16:11.934Z,1.77
2023-06-04T06:18:40.863Z,1.80
2023-06-04T06:21:09.694Z,1.60
2023-06-04T06:23:39.000Z,2.20
2023-06-04T06:26:09.389Z,1.97
2023-06-04T06:28:44.465Z,1.90
2023-06-04T06:31:14.990Z,2.00
2023-06-04T06:33:43.596Z,1.90
2023-06-04T06:36:12.707Z,1.80
2023-06-04T06:38:41.354Z,1.97
2023-06-04T06:41:10.026Z,1.63
2023-06-04T06:43:38.525Z,1.63
2023-06-04T06:46:07.316Z,2.17
2023-06-04T06:48:37.271Z,1.73
2023-06-04T06:51:05.994Z,1.80
2023-06-04T06:53:34.459Z,1.83
2023-06-04T06:56:02.828Z,1.83
2023-06-04T06:58:31.171Z,2.40
2023-06-04T07:00:59.975Z,1.80
2023-06-04T07:03:28.689Z,2.10
2023-06-04T07:05:58.603Z,2.20
2023-06-04T07:08:27.012Z,2.17
2023-06-04T07:10:55.476Z,2.20
2023-06-04T07:13:23.971Z,2.00
2023-06-04T07:15:52.292Z,1.90
2023-06-04T07:18:20.888Z,2.10
2023-06-04T07:20:49.194Z,2.00
2023-06-04T07:23:18.927Z,1.70
2023-06-04T07:25:47.297Z,1.90
2023-06-04T07:28:16.291Z,1.80
2023-06-04T07:30:44.651Z,2.00
2023-06-04T07:33:12.924Z,1.93
2023-06-04T07:35:41.235Z,1.60
2023-06-04T07:38:09.530Z,1.70
2023-06-04T07:40:39.304Z,1.93
2023-06-04T07:43:07.891Z,1.80
2023-06-04T07:45:36.523Z,2.00
2023-06-04T07:48:05.041Z,1.70
2023-06-04T07:50:36.102Z,1.93
2023-06-04T07:53:05.995Z,1.87
2023-06-04T07:55:34.733Z,1.70
2023-06-04T07:58:06.337Z,1.60
2023-06-04T08:00:34.973Z,2.03
2023-06-04T08:03:03.349Z,1.80
2023-06-04T08:05:32.297Z,1.83
2023-06-04T08:08:01.307Z,1.87
2023-06-04T08:10:29.593Z,1.43
2023-06-04T08:12:57.885Z,1.90
2023-06-04T08:15:27.564Z,1.67
2023-06-04T08:17:55.896Z,1.93
2023-06-04T08:20:25.930Z,1.93
2023-06-04T08:22:56.252Z,2.20
2023-06-04T08:25:24.570Z,1.90
2023-06-04T08:27:52.940Z,2.17
2023-06-04T08:30:21.409Z,2.00
2023-06-04T08:32:51.423Z,1.80
2023-06-04T08:35:19.991Z,1.90
2023-06-04T08:37:48.817Z,1.63
2023-06-04T08:40:17.164Z,1.83
2023-06-04T08:42:46.554Z,1.87
2023-06-04T08:45:16.462Z,1.80
2023-06-04T08:47:46.738Z,1.80
2023-06-04T08:50:17.158Z,1.70
2023-06-04T08:52:45.473Z,1.80
2023-06-04T08:55:15.039Z,2.03
2023-06-04T08:57:44.498Z,1.80
2023-06-04T09:00:14.187Z,1.80
2023-06-04T09:02:42.942Z,1.90
2023-06-04T09:05:11.741Z,1.90
2023-06-04T09:07:42.140Z,2.00
2023-06-04T09:10:13.853Z,2.10
2023-06-04T09:12:44.494Z,1.83
2023-06-04T09:15:12.847Z,2.33
2023-06-04T09:17:41.907Z,1.77
2023-06-04T09:20:10.906Z,1.97
2023-06-04T09:22:39.531Z,2.10
2023-06-04T09:25:10.988Z,1.90
2023-06-04T09:27:42.690Z,1.87
2023-06-04T09:30:12.325Z,2.00
2023-06-04T09:32:40.914Z,2.00
2023-06-04T09:35:13.921Z,2.00
2023-06-04T09:37:42.408Z,1.87
2023-06-04T09:40:13.015Z,1.97
2023-06-04T09:42:45.879Z,1.97
2023-06-04T09:45:14.418Z,1.83
2023-06-04T09:47:43.875Z,1.70
2023-06-04T09:50:13.071Z,1.90
2023-06-04T09:52:41.959Z,2.20
2023-06-04T09:55:23.293Z,1.80
2023-06-04T09:57:53.000Z,2.07
2023-06-04T10:00:22.352Z,1.90
2023-06-04T10:02:51.010Z,2.10
2023-06-04T10:05:22.818Z,1.90
2023-06-04T10:07:52.961Z,1.87
2023-06-04T10:10:24.674Z,1.90
2023-06-04T10:12:55.940Z,1.80
2023-06-04T10:15:24.239Z,1.73
2023-06-04T10:17:52.617Z,1.87
2023-06-04T10:20:21.727Z,1.80
2023-06-04T10:22:50.002Z,2.00
2023-06-04T10:25:18.384Z,2.00
2023-06-04T10:27:48.247Z,1.80
2023-06-04T10:30:16.651Z,1.93
2023-06-04T10:32:45.166Z,1.97
2023-06-04T10:35:15.551Z,1.97
2023-06-04T10:37:44.309Z,1.80
2023-06-04T10:40:13.236Z,1.73
2023-06-04T10:42:42.697Z,1.90
2023-06-04T10:45:13.367Z,1.80
2023-06-04T10:47:42.448Z,1.70
2023-06-04T10:50:12.327Z,1.73
2023-06-04T10:52:41.198Z,1.60
2023-06-04T10:55:10.610Z,1.80
2023-06-04T10:57:42.778Z,1.83
2023-06-04T11:00:14.008Z,1.87
2023-06-04T11:02:55.104Z,1.70
2023-06-04T11:05:23.600Z,2.00
2023-06-04T11:07:52.103Z,2.00
2023-06-04T11:10:20.461Z,1.80
2023-06-04T11:12:51.570Z,1.90
2023-06-04T11:15:21.531Z,1.80
2023-06-04T11:17:52.862Z,1.80
2023-06-04T11:20:21.716Z,1.70
2023-06-04T11:22:54.365Z,1.77
2023-06-04T11:25:23.498Z,1.90
2023-06-04T11:27:52.357Z,1.90
2023-06-04T11:30:22.154Z,1.93
2023-06-04T11:32:51.568Z,1.80
2023-06-04T11:35:20.098Z,1.70
2023-06-04T11:37:55.847Z,1.90
2023-06-04T11:40:24.300Z,2.03
2023-06-04T11:42:52.662Z,1.70
2023-06-04T11:45:23.512Z,2.20
2023-06-04T11:47:53.852Z,1.80
2023-06-04T11:50:22.342Z,1.87
2023-06-04T11:52:50.656Z,1.90
2023-06-04T11:55:21.949Z,1.60
2023-06-04T11:57:51.164Z,1.80
2023-06-04T12:00:20.493Z,1.80
2023-06-04T12:02:54.804Z,1.90
2023-06-04T12:05:25.193Z,2.20
2023-06-04T12:07:53.665Z,1.90
2023-06-04T12:10:22.091Z,1.80
2023-06-04T12:12:56.702Z,2.20
2023-06-04T12:15:25.190Z,1.70
2023-06-04T12:17:55.500Z,1.77
2023-06-04T12:20:37.400Z,2.10
2023-06-04T12:23:05.956Z,1.90
2023-06-04T12:25:34.629Z,2.00
2023-06-04T12:28:04.149Z,1.83
2023-06-04T12:30:38.843Z,2.03
2023-06-04T12:33:08.660Z,2.00
2023-06-04T12:35:37.489Z,2.07
2023-06-04T12:38:06.516Z,2.00
2023-06-04T12:40:35.413Z,1.90
2023-06-04T12:43:03.773Z,2.07
2023-06-04T12:45:32.100Z,1.87
2023-06-04T12:48:00.549Z,2.00
2023-06-04T12:50:30.314Z,1.73
2023-06-04T12:52:58.908Z,1.77
2023-06-04T12:55:28.356Z,1.73
2023-06-04T12:57:56.970Z,2.00
2023-06-04T13:00:25.292Z,2.10
2023-06-04T13:02:53.703Z,2.07
2023-06-04T13:05:22.083Z,1.97
2023-06-04T13:07:52.703Z,1.97
2023-06-04T13:10:21.722Z,2.17
2023-06-04T13:12:50.470Z,2.00
2023-06-04T13:15:19.057Z,1.80
2023-06-04T13:17:47.388Z,2.03
2023-06-04T13:20:16.101Z,2.23
2023-06-04T13:22:45.191Z,1.60
2023-06-04T13:25:14.988Z,2.33
2023-06-04T13:27:43.339Z,1.90
2023-06-04T13:30:12.673Z,1.83
2023-06-04T13:32:41.180Z,2.03
2023-06-04T13:35:10.371Z,1.77
2023-06-04T13:37:38.683Z,1.93
2023-06-04T13:40:08.706Z,1.90
2023-06-04T13:42:38.596Z,1.80
2023-06-04T13:45:08.124Z,1.90
2023-06-04T13:47:36.923Z,1.73
2023-06-04T13:50:05.809Z,1.80
2023-06-04T13:52:34.083Z,1.80
2023-06-04T13:55:02.424Z,2.00
2023-06-04T13:57:30.796Z,2.00
2023-06-04T14:00:00.519Z,1.80
2023-06-04T14:02:29.194Z,1.63
2023-06-04T14:04:57.555Z,1.83
2023-06-04T14:07:25.970Z,1.80
2023-06-04T14:09:55.973Z,1.87
2023-06-04T14:12:24.553Z,1.97
2023-06-04T14:14:52.906Z,1.90
2023-06-04T14:17:24.075Z,1.70
2023-06-04T14:19:52.403Z,2.00
2023-06-04T14:22:20.736Z,1.60
2023-06-04T14:24:49.022Z,2.07
2023-06-04T14:27:17.309Z,2.07
2023-06-04T14:29:45.980Z,1.80
2023-06-04T14:32:14.258Z,1.70
2023-06-04T14:34:43.977Z,2.23
2023-06-04T14:37:12.378Z,1.80
2023-06-04T14:39:40.700Z,2.00
2023-06-04T14:42:09.106Z,1.90
2023-06-04T14:44:37.441Z,1.87
2023-06-04T14:47:06.435Z,1.80
2023-06-04T14:49:34.733Z,1.93
2023-06-04T14:52:04.740Z,1.97
2023-06-04T14:54:33.095Z,2.17
2023-06-04T14:57:02.205Z,2.17
2023-06-04T14:59:30.789Z,2.17
2023-06-04T15:01:59.332Z,1.83
2023-06-04T15:04:27.711Z,1.93
2023-06-04T15:06:56.038Z,1.80
2023-06-04T15:09:25.727Z,1.57
2023-06-04T15:11:54.325Z,1.90
2023-06-04T15:14:22.726Z,1.87
2023-06-04T15:16:51.126Z,1.93
2023-06-04T15:19:19.428Z,1.70
2023-06-04T15:21:47.788Z,1.97
2023-06-04T15:24:16.319Z,1.90
2023-06-04T15:26:46.157Z,2.00
2023-06-04T15:29:14.486Z,1.60
2023-06-04T15:31:42.753Z,1.97
2023-06-04T15:34:11.130Z,2.00
2023-06-04T15:36:39.775Z,1.93
2023-06-04T15:39:08.556Z,1.87
2023-06-04T15:41:36.902Z,1.90
2023-06-04T15:44:07.581Z,1.70
2023-06-04T15:46:36.026Z,1.70
2023-06-04T15:49:06.982Z,2.10
2023-06-04T15:51:36.466Z,1.90
2023-06-04T15:54:05.644Z,2.10
2023-06-04T15:56:34.069Z,2.00
2023-06-04T15:59:02.414Z,1.77
2023-06-04T16:01:32.216Z,1.80
2023-06-04T16:04:00.585Z,1.97
2023-06-04T16:06:29.276Z,1.80
2023-06-04T16:08:57.589Z,1.90
2023-06-04T16:11:27.138Z,2.03
2023-06-04T16:13:55.609Z,1.83
2023-06-04T16:16:24.061Z,2.10
2023-06-04T16:18:54.284Z,1.90
2023-06-04T16:21:22.980Z,1.80
2023-06-04T16:23:52.445Z,2.00
2023-06-04T16:26:20.872Z,2.23
2023-06-04T16:28:49.187Z,1.90
2023-06-04T16:31:17.593Z,1.80
2023-06-04T16:33:47.527Z,1.83
2023-06-04T16:36:17.315Z,1.77
2023-06-04T16:38:45.645Z,1.93
2023-06-04T16:41:14.597Z,1.93
2023-06-04T16:43:43.011Z,1.90
2023-06-04T16:46:11.654Z,1.80
2023-06-04T16:48:40.389Z,1.80
2023-06-04T16:51:08.720Z,1.97
2023-06-04T16:53:38.514Z,1.80
2023-06-04T16:56:07.160Z,1.93
2023-06-04T16:58:39.211Z,1.80
2023-06-04T17:01:11.466Z,1.80
2023-06-04T17:03:40.075Z,1.73
2023-06-04T17:06:08.733Z,1.87
2023-06-04T17:08:38.643Z,1.67
2023-06-04T17:11:06.942Z,1.90
2023-06-04T17:13:35.224Z,1.63
2023-06-04T17:16:03.878Z,1.77
2023-06-04T17:18:32.190Z,1.87
2023-06-04T17:21:00.770Z,1.60
2023-06-04T17:23:29.168Z,1.67
2023-06-04T17:26:00.671Z,2.10
2023-06-04T17:28:29.515Z,1.67
2023-06-04T17:30:57.914Z,1.73
2023-06-04T17:33:26.230Z,1.93
2023-06-04T17:35:54.566Z,2.10
2023-06-04T17:38:22.885Z,2.23
2023-06-04T17:40:51.248Z,1.90
2023-06-04T17:43:21.398Z,1.63
2023-06-04T17:45:49.713Z,1.97
2023-06-04T17:48:18.033Z,1.63
2023-06-04T17:50:46.497Z,1.70
2023-06-04T17:53:14.808Z,1.80
2023-06-04T17:55:43.111Z,1.70
2023-06-04T17:58:11.744Z,1.90
2023-06-04T18:00:41.465Z,1.63
2023-06-04T18:03:09.937Z,1.60
2023-06-04T18:05:38.351Z,1.70
2023-06-04T18:08:06.778Z,2.13
2023-06-04T18:10:35.778Z,1.90
2023-06-04T18:13:04.693Z,1.80
2023-06-04T18:15:32.980Z,1.60
2023-06-04T18:18:02.748Z,1.90
2023-06-04T18:20:31.086Z,1.63
2023-06-04T18:22:59.444Z,1.50
2023-06-04T18:25:27.784Z,2.00
2023-06-04T18:27:56.232Z,1.80
2023-06-04T18:30:24.576Z,1.83
2023-06-04T18:32:54.905Z,2.00
2023-06-04T18:35:24.721Z,1.67
2023-06-04T18:37:53.024Z,1.70
2023-06-04T18:40:21.597Z,1.70
2023-06-04T18:42:49.893Z,1.60
2023-06-04T18:45:18.312Z,1.90
2023-06-04T18:47:46.707Z,1.67
2023-06-04T18:50:15.146Z,1.70
2023-06-04T18:52:45.246Z,1.80
2023-06-04T18:55:13.561Z,1.90
2023-06-04T18:57:41.932Z,2.00
2023-06-04T19:00:11.528Z,1.87
2023-06-04T19:02:40.041Z,1.90
2023-06-04T19:05:11.337Z,1.83
2023-06-04T19:07:40.856Z,2.03
2023-06-04T19:10:12.130Z,1.90
2023-06-04T19:12:43.341Z,1.87
2023-06-04T19:15:12.297Z,1.83
2023-06-04T19:17:40.879Z,1.83
2023-06-04T19:20:09.885Z,1.97
2023-06-04T19:22:38.602Z,1.50
2023-06-04T19:25:07.621Z,1.57
2023-06-04T19:27:37.380Z,1.77
2023-06-04T19:30:07.134Z,1.63
2023-06-04T19:32:35.759Z,1.90
2023-06-04T19:35:04.098Z,1.70
2023-06-04T19:37:32.492Z,1.77
2023-06-04T19:40:00.805Z,1.50
2023-06-04T19:42:29.168Z,1.60
2023-06-04T19:44:58.976Z,1.77
2023-06-04T19:47:27.760Z,1.90
2023-06-04T19:49:57.024Z,1.60
2023-06-04T19:52:25.962Z,1.60
2023-06-04T19:54:54.369Z,1.70
2023-06-04T19:57:22.899Z,1.63
2023-06-04T19:59:51.941Z,1.90
2023-06-04T20:02:21.735Z,1.80
2023-06-04T20:04:52.232Z,1.80
2023-06-04T20:07:20.985Z,1.93
2023-06-04T20:09:49.357Z,1.60
2023-06-04T20:12:19.496Z,1.60
2023-06-04T20:14:48.232Z,1.83
2023-06-04T20:17:16.528Z,1.77
2023-06-04T20:19:46.390Z,2.00
2023-06-04T20:22:14.718Z,2.10
2023-06-04T20:24:43.830Z,2.00
2023-06-04T20:27:12.237Z,1.87
2023-06-04T20:29:41.017Z,2.00
2023-06-04T20:32:09.332Z,2.07
2023-06-04T20:34:37.676Z,1.80
2023-06-04T20:37:07.545Z,1.80
2023-06-04T20:39:40.326Z,1.80
2023-06-04T20:42:09.065Z,2.03
2023-06-04T20:44:37.365Z,2.03
2023-06-04T20:47:06.478Z,1.93
2023-06-04T20:49:34.631Z,2.00
2023-06-04T20:52:02.779Z,1.90
2023-06-04T20:54:32.263Z,1.70
2023-06-04T20:57:00.985Z,1.97
2023-06-04T20:59:29.137Z,2.00
2023-06-04T21:01:57.432Z,2.00
2023-06-04T21:04:25.638Z,1.80
2023-06-04T21:06:54.026Z,1.87
2023-06-04T21:09:22.657Z,2.33
2023-06-04T21:11:52.430Z,2.10
2023-06-04T21:14:20.716Z,2.00
2023-06-04T21:16:49.079Z,1.97
2023-06-04T21:19:17.411Z,2.10
2023-06-04T21:21:45.734Z,2.10
2023-06-04T21:24:15.334Z,2.03
2023-06-04T21:26:43.644Z,2.20
2023-06-04T21:29:13.357Z,2.10
2023-06-04T21:31:41.691Z,1.90
2023-06-04T21:34:09.961Z,2.40
2023-06-04T21:36:38.639Z,2.13
2023-06-04T21:39:07.253Z,2.13
2023-06-04T21:41:35.586Z,2.00
2023-06-04T21:44:03.918Z,2.13
2023-06-04T21:46:34.008Z,1.93
2023-06-04T21:49:02.457Z,2.13
2023-06-04T21:51:31.115Z,2.07
2023-06-04T21:53:59.401Z,2.00
2023-06-04T21:56:28.260Z,2.40
2023-06-04T21:58:56.662Z,2.17
2023-06-04T22:01:25.407Z,1.87
2023-06-04T22:03:55.643Z,2.17
2023-06-04T22:06:24.249Z,2.33
2023-06-04T22:08:52.590Z,2.13
2023-06-04T22:11:21.362Z,2.40
2023-06-04T22:13:49.806Z,2.10
2023-06-04T22:16:18.121Z,2.07
2023-06-04T22:18:52.753Z,2.00
2023-06-04T22:21:23.469Z,2.17
2023-06-04T22:23:51.812Z,2.13
2023-06-04T22:28:51.358Z,2.07
2023-06-04T22:31:19.896Z,2.40
2023-06-04T22:33:48.955Z,2.10
2023-06-04T22:36:18.245Z,2.10
2023-06-04T22:38:48.065Z,2.23
2023-06-04T22:41:16.459Z,2.10
2023-06-04T22:43:44.735Z,2.20
2023-06-04T22:46:13.422Z,2.07
2023-06-04T22:48:42.094Z,2.20
2023-06-04T22:51:10.639Z,2.93
2023-06-04T22:53:39.171Z,2.33
2023-06-04T22:56:10.444Z,2.30
2023-06-04T22:58:39.919Z,1.90
2023-06-04T23:01:08.664Z,2.13
2023-06-04T23:03:39.293Z,2.17
2023-06-04T23:06:07.679Z,2.00
2023-06-04T23:08:36.151Z,2.10
2023-06-04T23:11:04.459Z,2.30
2023-06-04T23:13:35.068Z,1.97
2023-06-04T23:16:03.444Z,2.50
2023-06-04T23:18:33.511Z,1.97
2023-06-04T23:21:02.084Z,1.97
2023-06-04T23:23:30.398Z,2.17
2023-06-04T23:25:59.489Z,2.03
2023-06-04T23:28:27.809Z,1.90
2023-06-04T23:30:57.582Z,2.10
2023-06-04T23:33:26.935Z,2.17
2023-06-04T23:35:55.334Z,1.77
2023-06-04T23:38:23.748Z,1.93
2023-06-04T23:40:52.323Z,1.93
2023-06-04T23:43:20.810Z,2.20
2023-06-04T23:45:49.454Z,2.00
2023-06-04T23:48:19.184Z,2.37
2023-06-04T23:50:47.475Z,2.20
2023-06-04T23:53:15.814Z,2.00
2023-06-04T23:55:44.575Z,1.97
2023-06-04T23:58:12.976Z,2.00
